Terminal Aerodrome Forecast
Issued by NWS Cleveland, OH

Home | Current Version | Previous Version | Text Only | Print | Product List | Glossary Off
Versions: 1 2 3 4 5 6 7 8 9 10 11 12 13 14 15 16 17 18 19 20 21 22 23 24 25 26 27 28 29 30 31 32 33

000
FTUS41 KCLE 172300
TAFCLE
TAF
KCLE 172330Z 1800/1906 02006KT P6SM BKN080
     FM180200 09004KT P6SM SCT080
      TEMPO 1809/1813 5SM BR
     FM181500 08006KT P6SM BKN030
     FM181700 03008KT P6SM BKN040=

USA.gov is the U.S. government's official web portal to all federal, state and local government web resources and services.